sensor_id;sensor_type;location;lat;lon;timestamp;pressure;altitude;pressure_sealevel;temperature;humidity
24996;BME280;13016;52.162;21.034;2023-11-18T00:03:55;100492.65;;;6.75;61.64
24996;BME280;13016;52.162;21.034;2023-11-18T00:09:56;100494.61;;;6.66;61.57
24996;BME280;13016;52.162;21.034;2023-11-18T00:15:56;100499.11;;;6.67;61.60
24996;BME280;13016;52.162;21.034;2023-11-18T00:21:56;100506.96;;;6.68;61.54
24996;BME280;13016;52.162;21.034;2023-11-18T00:27:56;100517.46;;;6.69;61.56
24996;BME280;13016;52.162;21.034;2023-11-18T00:33:57;100518.65;;;6.65;61.50
24996;BME280;13016;52.162;21.034;2023-11-18T00:39:57;100523.94;;;6.68;61.49
24996;BME280;13016;52.162;21.034;2023-11-18T00:45:58;100529.03;;;6.69;61.50
24996;BME280;13016;52.162;21.034;2023-11-18T00:51:58;100531.95;;;6.74;61.49
24996;BME280;13016;52.162;21.034;2023-11-18T00:57:58;100536.45;;;6.76;61.53
24996;BME280;13016;52.162;21.034;2023-11-18T01:03:58;100541.33;;;6.72;61.39
24996;BME280;13016;52.162;21.034;2023-11-18T01:09:58;100543.65;;;6.71;61.49
24996;BME280;13016;52.162;21.034;2023-11-18T01:15:59;100549.25;;;6.67;61.45
24996;BME280;13016;52.162;21.034;2023-11-18T01:21:59;100545.80;;;6.70;61.44
24996;BME280;13016;52.162;21.034;2023-11-18T01:28:00;100549.64;;;6.70;61.53
24996;BME280;13016;52.162;21.034;2023-11-18T01:34:00;100548.35;;;6.72;61.43
24996;BME280;13016;52.162;21.034;2023-11-18T01:40:00;100537.09;;;6.68;61.41
24996;BME280;13016;52.162;21.034;2023-11-18T01:46:03;100535.55;;;6.63;61.39
24996;BME280;13016;52.162;21.034;2023-11-18T01:52:07;100540.96;;;6.68;61.52
24996;BME280;13016;52.162;21.034;2023-11-18T01:58:07;100533.84;;;6.66;61.42
24996;BME280;13016;52.162;21.034;2023-11-18T02:04:08;100534.45;;;6.65;61.32
24996;BME280;13016;52.162;21.034;2023-11-18T02:10:08;100534.52;;;6.63;61.55
24996;BME280;13016;52.162;21.034;2023-11-18T02:16:10;100539.45;;;6.66;61.45
24996;BME280;13016;52.162;21.034;2023-11-18T02:22:11;100543.42;;;6.68;61.56
24996;BME280;13016;52.162;21.034;2023-11-18T02:28:12;100550.98;;;6.72;61.50
24996;BME280;13016;52.162;21.034;2023-11-18T02:34:16;100560.23;;;6.77;61.51
24996;BME280;13016;52.162;21.034;2023-11-18T02:40:25;100559.85;;;6.69;61.29
24996;BME280;13016;52.162;21.034;2023-11-18T02:46:27;100563.78;;;6.68;61.43
24996;BME280;13016;52.162;21.034;2023-11-18T02:52:27;100561.27;;;6.69;61.42
24996;BME280;13016;52.162;21.034;2023-11-18T02:58:30;100572.81;;;6.70;61.38
24996;BME280;13016;52.162;21.034;2023-11-18T03:04:31;100582.08;;;6.70;61.38
24996;BME280;13016;52.162;21.034;2023-11-18T03:10:31;100583.10;;;6.71;61.44
24996;BME280;13016;52.162;21.034;2023-11-18T03:16:32;100580.49;;;6.74;61.44
24996;BME280;13016;52.162;21.034;2023-11-18T03:22:32;100594.59;;;6.77;61.39
24996;BME280;13016;52.162;21.034;2023-11-18T03:28:32;100596.11;;;6.74;61.33
24996;BME280;13016;52.162;21.034;2023-11-18T03:34:33;100601.84;;;6.67;61.21
24996;BME280;13016;52.162;21.034;2023-11-18T03:40:33;100612.47;;;6.64;61.35
24996;BME280;13016;52.162;21.034;2023-11-18T03:46:33;100613.34;;;6.60;61.58
24996;BME280;13016;52.162;21.034;2023-11-18T03:52:33;100619.80;;;6.61;61.38
24996;BME280;13016;52.162;21.034;2023-11-18T03:58:33;100627.52;;;6.65;61.44
24996;BME280;13016;52.162;21.034;2023-11-18T04:04:52;100629.67;;;6.64;61.37
24996;BME280;13016;52.162;21.034;2023-11-18T04:10:52;100630.61;;;6.70;61.37
24996;BME280;13016;52.162;21.034;2023-11-18T04:16:53;100637.02;;;6.73;61.29
24996;BME280;13016;52.162;21.034;2023-11-18T04:22:53;100637.11;;;6.66;61.15
24996;BME280;13016;52.162;21.034;2023-11-18T04:28:53;100644.93;;;6.67;61.43
24996;BME280;13016;52.162;21.034;2023-11-18T04:34:53;100646.64;;;6.64;61.30
24996;BME280;13016;52.162;21.034;2023-11-18T04:40:54;100648.23;;;6.60;61.33
24996;BME280;13016;52.162;21.034;2023-11-18T04:46:55;100652.94;;;6.61;61.34
24996;BME280;13016;52.162;21.034;2023-11-18T04:52:56;100655.13;;;6.63;61.29
24996;BME280;13016;52.162;21.034;2023-11-18T04:58:56;100653.20;;;6.63;61.34
24996;BME280;13016;52.162;21.034;2023-11-18T05:04:56;100660.10;;;6.57;61.32
24996;BME280;13016;52.162;21.034;2023-11-18T05:10:57;100667.11;;;6.53;61.39
24996;BME280;13016;52.162;21.034;2023-11-18T05:16:57;100671.27;;;6.49;61.41
24996;BME280;13016;52.162;21.034;2023-11-18T05:22:57;100672.84;;;6.54;61.50
24996;BME280;13016;52.162;21.034;2023-11-18T05:28:57;100678.44;;;6.45;61.36
24996;BME280;13016;52.162;21.034;2023-11-18T05:41:36;100691.39;;;6.37;61.44
24996;BME280;13016;52.162;21.034;2023-11-18T05:47:36;100706.14;;;6.36;61.60
24996;BME280;13016;52.162;21.034;2023-11-18T05:53:43;100715.75;;;6.41;61.62
24996;BME280;13016;52.162;21.034;2023-11-18T05:59:44;100725.55;;;6.37;61.61
24996;BME280;13016;52.162;21.034;2023-11-18T06:05:44;100737.73;;;6.44;61.69
24996;BME280;13016;52.162;21.034;2023-11-18T06:11:44;100739.63;;;6.40;61.53
24996;BME280;13016;52.162;21.034;2023-11-18T06:17:44;100746.02;;;6.29;61.46
24996;BME280;13016;52.162;21.034;2023-11-18T06:23:46;100752.25;;;6.26;61.61
24996;BME280;13016;52.162;21.034;2023-11-18T06:29:49;100761.08;;;6.38;61.58
24996;BME280;13016;52.162;21.034;2023-11-18T06:35:50;100776.77;;;6.40;61.40
24996;BME280;13016;52.162;21.034;2023-11-18T06:41:50;100786.80;;;6.39;61.41
24996;BME280;13016;52.162;21.034;2023-11-18T06:47:50;100781.99;;;6.36;61.38
24996;BME280;13016;52.162;21.034;2023-11-18T06:53:54;100789.00;;;6.41;61.50
24996;BME280;13016;52.162;21.034;2023-11-18T06:59:54;100800.13;;;6.43;61.45
24996;BME280;13016;52.162;21.034;2023-11-18T07:05:55;100811.77;;;6.42;61.42
24996;BME280;13016;52.162;21.034;2023-11-18T07:11:55;100817.98;;;6.44;61.45
24996;BME280;13016;52.162;21.034;2023-11-18T07:18:01;100824.83;;;6.35;61.27
24996;BME280;13016;52.162;21.034;2023-11-18T07:24:01;100832.67;;;6.40;61.45
24996;BME280;13016;52.162;21.034;2023-11-18T07:30:08;100840.02;;;6.45;61.32
24996;BME280;13016;52.162;21.034;2023-11-18T07:36:09;100845.54;;;6.33;61.21
24996;BME280;13016;52.162;21.034;2023-11-18T07:42:12;100848.05;;;6.32;61.19
24996;BME280;13016;52.162;21.034;2023-11-18T07:48:12;100851.91;;;6.36;61.40
24996;BME280;13016;52.162;21.034;2023-11-18T07:54:16;100850.43;;;6.29;61.32
24996;BME280;13016;52.162;21.034;2023-11-18T08:00:21;100855.41;;;6.36;61.44
24996;BME280;13016;52.162;21.034;2023-11-18T08:06:23;100874.75;;;6.39;61.36
24996;BME280;13016;52.162;21.034;2023-11-18T08:59:24;100936.67;;;7.37;58.43
24996;BME280;13016;52.162;21.034;2023-11-18T09:05:24;100941.63;;;6.94;58.61
24996;BME280;13016;52.162;21.034;2023-11-18T09:11:25;100943.23;;;6.75;59.40
24996;BME280;13016;52.162;21.034;2023-11-18T09:17:31;100940.11;;;6.64;59.82
24996;BME280;13016;52.162;21.034;2023-11-18T09:23:56;100946.06;;;6.54;60.02
24996;BME280;13016;52.162;21.034;2023-11-18T09:29:57;100951.36;;;6.53;60.19
24996;BME280;13016;52.162;21.034;2023-11-18T09:36:00;100957.83;;;6.49;60.39
24996;BME280;13016;52.162;21.034;2023-11-18T09:42:01;100965.08;;;6.42;60.48
24996;BME280;13016;52.162;21.034;2023-11-18T09:48:02;100960.48;;;6.48;60.54
24996;BME280;13016;52.162;21.034;2023-11-18T09:54:05;100955.33;;;6.45;60.59
24996;BME280;13016;52.162;21.034;2023-11-18T10:00:16;100959.70;;;6.50;60.82
24996;BME280;13016;52.162;21.034;2023-11-18T10:06:22;100963.00;;;6.51;60.69
24996;BME280;13016;52.162;21.034;2023-11-18T10:12:38;100965.58;;;6.53;60.63
24996;BME280;13016;52.162;21.034;2023-11-18T10:18:39;100971.23;;;6.56;60.79
24996;BME280;13016;52.162;21.034;2023-11-18T10:24:45;100978.95;;;6.61;60.77
24996;BME280;13016;52.162;21.034;2023-11-18T10:30:46;100982.13;;;6.65;60.75
24996;BME280;13016;52.162;21.034;2023-11-18T10:37:00;100977.93;;;6.55;60.69
24996;BME280;13016;52.162;21.034;2023-11-18T10:43:01;100973.88;;;6.46;60.71
24996;BME280;13016;52.162;21.034;2023-11-18T10:49:01;100971.95;;;6.51;60.90
24996;BME280;13016;52.162;21.034;2023-11-18T10:55:01;100977.32;;;6.42;60.54
24996;BME280;13016;52.162;21.034;2023-11-18T11:01:02;100981.38;;;6.37;60.61
24996;BME280;13016;52.162;21.034;2023-11-18T11:07:02;100977.36;;;6.41;60.77
24996;BME280;13016;52.162;21.034;2023-11-18T11:13:06;100979.44;;;6.42;60.82
24996;BME280;13016;52.162;21.034;2023-11-18T11:19:07;100993.53;;;6.40;60.68
24996;BME280;13016;52.162;21.034;2023-11-18T11:25:20;101000.09;;;6.43;60.71
24996;BME280;13016;52.162;21.034;2023-11-18T11:31:38;101000.77;;;6.53;60.79
24996;BME280;13016;52.162;21.034;2023-11-18T11:37:39;101002.65;;;6.55;60.61
24996;BME280;13016;52.162;21.034;2023-11-18T11:43:39;101010.79;;;6.53;60.55
24996;BME280;13016;52.162;21.034;2023-11-18T11:49:47;101021.67;;;6.58;60.58
24996;BME280;13016;52.162;21.034;2023-11-18T11:55:52;101025.91;;;6.57;60.67
24996;BME280;13016;52.162;21.034;2023-11-18T12:02:04;101035.25;;;6.61;60.50
24996;BME280;13016;52.162;21.034;2023-11-18T12:08:07;101038.44;;;6.59;60.49
24996;BME280;13016;52.162;21.034;2023-11-18T12:14:09;101042.91;;;6.56;60.52
24996;BME280;13016;52.162;21.034;2023-11-18T12:26:39;101056.96;;;6.56;60.59
24996;BME280;13016;52.162;21.034;2023-11-18T12:32:59;101059.44;;;6.71;60.74
24996;BME280;13016;52.162;21.034;2023-11-18T12:45:44;101076.70;;;6.79;60.67
24996;BME280;13016;52.162;21.034;2023-11-18T12:51:54;101085.14;;;6.83;60.61
24996;BME280;13016;52.162;21.034;2023-11-18T12:57:54;101092.94;;;6.85;60.70
24996;BME280;13016;52.162;21.034;2023-11-18T13:03:54;101104.96;;;6.82;60.43
24996;BME280;13016;52.162;21.034;2023-11-18T13:09:59;101116.23;;;6.81;60.51
24996;BME280;13016;52.162;21.034;2023-11-18T13:15:59;101122.44;;;6.79;60.45
24996;BME280;13016;52.162;21.034;2023-11-18T13:22:05;101132.62;;;6.79;60.34
24996;BME280;13016;52.162;21.034;2023-11-18T13:28:07;101139.41;;;6.75;60.30
24996;BME280;13016;52.162;21.034;2023-11-18T13:34:08;101142.51;;;6.71;60.45
24996;BME280;13016;52.162;21.034;2023-11-18T13:40:09;101155.61;;;6.63;60.40
24996;BME280;13016;52.162;21.034;2023-11-18T13:46:11;101159.80;;;6.57;60.60
24996;BME280;13016;52.162;21.034;2023-11-18T13:52:13;101165.59;;;6.52;60.41
24996;BME280;13016;52.162;21.034;2023-11-18T13:58:13;101180.33;;;6.46;60.53
24996;BME280;13016;52.162;21.034;2023-11-18T14:04:15;101183.59;;;6.43;60.50
24996;BME280;13016;52.162;21.034;2023-11-18T14:10:16;101180.63;;;6.42;60.58
24996;BME280;13016;52.162;21.034;2023-11-18T14:16:16;101185.23;;;6.41;60.62
24996;BME280;13016;52.162;21.034;2023-11-18T14:22:26;101195.88;;;6.31;60.42
24996;BME280;13016;52.162;21.034;2023-11-18T14:35:05;101206.02;;;6.31;60.63
24996;BME280;13016;52.162;21.034;2023-11-18T14:41:05;101203.01;;;6.38;60.81
24996;BME280;13016;52.162;21.034;2023-11-18T14:47:06;101205.69;;;6.42;60.78
24996;BME280;13016;52.162;21.034;2023-11-18T14:53:06;101205.84;;;6.37;60.73
24996;BME280;13016;52.162;21.034;2023-11-18T14:59:06;101206.84;;;6.27;60.57
24996;BME280;13016;52.162;21.034;2023-11-18T15:05:07;101208.50;;;6.31;60.59
24996;BME280;13016;52.162;21.034;2023-11-18T15:17:45;101203.02;;;6.26;60.50
24996;BME280;13016;52.162;21.034;2023-11-18T15:23:45;101198.43;;;6.27;60.57
24996;BME280;13016;52.162;21.034;2023-11-18T15:29:46;101209.08;;;6.28;60.60
24996;BME280;13016;52.162;21.034;2023-11-18T15:35:46;101215.73;;;6.29;60.53
24996;BME280;13016;52.162;21.034;2023-11-18T15:42:02;101215.05;;;6.23;60.50
24996;BME280;13016;52.162;21.034;2023-11-18T15:48:04;101216.27;;;6.23;60.64
24996;BME280;13016;52.162;21.034;2023-11-18T15:54:11;101219.52;;;6.20;60.53
24996;BME280;13016;52.162;21.034;2023-11-18T16:00:13;101228.48;;;6.18;60.58
24996;BME280;13016;52.162;21.034;2023-11-18T16:06:14;101235.67;;;6.13;60.34
24996;BME280;13016;52.162;21.034;2023-11-18T16:12:14;101249.31;;;6.13;60.43
24996;BME280;13016;52.162;21.034;2023-11-18T16:18:14;101248.25;;;6.14;60.33
24996;BME280;13016;52.162;21.034;2023-11-18T16:24:15;101257.13;;;6.16;60.15
24996;BME280;13016;52.162;21.034;2023-11-18T16:30:15;101248.52;;;6.11;60.13
24996;BME280;13016;52.162;21.034;2023-11-18T16:36:22;101257.44;;;6.04;60.16
24996;BME280;13016;52.162;21.034;2023-11-18T16:42:22;101264.95;;;6.11;60.24
24996;BME280;13016;52.162;21.034;2023-11-18T16:48:23;101262.52;;;6.11;60.19
24996;BME280;13016;52.162;21.034;2023-11-18T16:54:23;101264.40;;;6.12;59.99
24996;BME280;13016;52.162;21.034;2023-11-18T17:00:23;101265.60;;;6.13;59.96
24996;BME280;13016;52.162;21.034;2023-11-18T17:06:24;101272.50;;;6.10;59.88
24996;BME280;13016;52.162;21.034;2023-11-18T17:12:24;101277.41;;;6.11;59.91
24996;BME280;13016;52.162;21.034;2023-11-18T17:18:24;101274.62;;;6.04;59.88
24996;BME280;13016;52.162;21.034;2023-11-18T17:24:25;101270.47;;;6.02;59.84
24996;BME280;13016;52.162;21.034;2023-11-18T17:30:25;101267.20;;;6.13;60.00
24996;BME280;13016;52.162;21.034;2023-11-18T17:36:26;101270.15;;;6.19;59.90
24996;BME280;13016;52.162;21.034;2023-11-18T17:42:26;101263.27;;;6.21;59.95
24996;BME280;13016;52.162;21.034;2023-11-18T17:48:27;101254.55;;;6.14;59.85
24996;BME280;13016;52.162;21.034;2023-11-18T17:54:27;101252.33;;;6.06;59.83
24996;BME280;13016;52.162;21.034;2023-11-18T18:00:27;101245.16;;;6.05;59.87
24996;BME280;13016;52.162;21.034;2023-11-18T18:06:27;101236.00;;;5.96;59.85
24996;BME280;13016;52.162;21.034;2023-11-18T18:12:28;101240.04;;;6.07;60.08
24996;BME280;13016;52.162;21.034;2023-11-18T18:18:28;101248.45;;;6.19;60.14
24996;BME280;13016;52.162;21.034;2023-11-18T18:24:28;101254.46;;;6.23;60.07
24996;BME280;13016;52.162;21.034;2023-11-18T18:30:28;101261.33;;;6.22;59.76
24996;BME280;13016;52.162;21.034;2023-11-18T18:36:29;101243.40;;;6.30;59.94
24996;BME280;13016;52.162;21.034;2023-11-18T18:42:29;101235.48;;;6.25;59.72
24996;BME280;13016;52.162;21.034;2023-11-18T18:48:29;101232.77;;;6.16;59.50
24996;BME280;13016;52.162;21.034;2023-11-18T18:54:29;101236.02;;;6.13;59.38
24996;BME280;13016;52.162;21.034;2023-11-18T19:00:30;101242.70;;;6.24;59.45
24996;BME280;13016;52.162;21.034;2023-11-18T19:06:30;101245.90;;;6.22;59.20
24996;BME280;13016;52.162;21.034;2023-11-18T19:12:30;101256.17;;;6.18;59.31
24996;BME280;13016;52.162;21.034;2023-11-18T19:18:30;101250.99;;;6.27;59.40
24996;BME280;13016;52.162;21.034;2023-11-18T19:24:34;101245.97;;;6.32;59.21
24996;BME280;13016;52.162;21.034;2023-11-18T19:30:37;101257.36;;;6.19;59.17
24996;BME280;13016;52.162;21.034;2023-11-18T19:36:38;101260.49;;;6.26;59.58
24996;BME280;13016;52.162;21.034;2023-11-18T19:42:38;101265.52;;;6.34;59.48
24996;BME280;13016;52.162;21.034;2023-11-18T19:48:38;101254.43;;;6.36;59.48
24996;BME280;13016;52.162;21.034;2023-11-18T19:54:38;101249.17;;;6.30;59.16
24996;BME280;13016;52.162;21.034;2023-11-18T20:00:39;101242.33;;;6.30;59.20
24996;BME280;13016;52.162;21.034;2023-11-18T20:06:42;101236.74;;;6.35;59.28
24996;BME280;13016;52.162;21.034;2023-11-18T20:12:42;101238.36;;;6.39;59.24
24996;BME280;13016;52.162;21.034;2023-11-18T20:18:42;101230.16;;;6.38;59.19
24996;BME280;13016;52.162;21.034;2023-11-18T20:24:43;101225.04;;;6.34;59.27
24996;BME280;13016;52.162;21.034;2023-11-18T20:30:43;101223.73;;;6.25;59.19
24996;BME280;13016;52.162;21.034;2023-11-18T20:36:43;101209.86;;;6.14;59.11
24996;BME280;13016;52.162;21.034;2023-11-18T20:42:44;101193.34;;;6.05;59.21
24996;BME280;13016;52.162;21.034;2023-11-18T20:48:44;101181.42;;;6.05;59.37
24996;BME280;13016;52.162;21.034;2023-11-18T20:54:44;101177.55;;;6.05;59.46
24996;BME280;13016;52.162;21.034;2023-11-18T21:00:44;101175.20;;;6.08;59.49
24996;BME280;13016;52.162;21.034;2023-11-18T21:06:45;101173.42;;;6.15;59.58
24996;BME280;13016;52.162;21.034;2023-11-18T21:12:45;101158.79;;;6.06;59.25
24996;BME280;13016;52.162;21.034;2023-11-18T21:18:45;101154.24;;;6.00;59.60
24996;BME280;13016;52.162;21.034;2023-11-18T21:24:46;101160.78;;;5.92;59.51
24996;BME280;13016;52.162;21.034;2023-11-18T21:30:46;101157.05;;;5.94;59.81
24996;BME280;13016;52.162;21.034;2023-11-18T21:36:46;101157.31;;;5.97;59.87
24996;BME280;13016;52.162;21.034;2023-11-18T21:42:46;101155.93;;;5.96;59.74
24996;BME280;13016;52.162;21.034;2023-11-18T21:48:47;101152.20;;;6.04;59.87
24996;BME280;13016;52.162;21.034;2023-11-18T21:54:47;101150.16;;;6.02;59.76
24996;BME280;13016;52.162;21.034;2023-11-18T22:00:47;101145.64;;;6.07;59.79
24996;BME280;13016;52.162;21.034;2023-11-18T22:06:47;101144.08;;;6.12;59.86
24996;BME280;13016;52.162;21.034;2023-11-18T22:12:51;101143.23;;;6.22;59.84
24996;BME280;13016;52.162;21.034;2023-11-18T22:25:35;101166.66;;;6.34;59.61
24996;BME280;13016;52.162;21.034;2023-11-18T22:37:57;101195.12;;;6.38;59.62
24996;BME280;13016;52.162;21.034;2023-11-18T22:43:58;101191.98;;;6.43;59.77
24996;BME280;13016;52.162;21.034;2023-11-18T23:51:33;101069.50;;;7.19;57.09
24996;BME280;13016;52.162;21.034;2023-11-18T23:57:34;101080.55;;;6.84;57.48
